sensor_id;sensor_type;location;lat;lon;timestamp;pressure;altitude;pressure_sealevel;temperature;humidity
53889;BME280;41337;51.400;-2.342;2023-10-13T00:02:32;100285.50;;;15.18;100.00
53889;BME280;41337;51.400;-2.342;2023-10-13T00:07:34;100270.81;;;15.22;100.00
53889;BME280;41337;51.400;-2.342;2023-10-13T00:12:34;100250.81;;;15.26;100.00
53889;BME280;41337;51.400;-2.342;2023-10-13T00:17:38;100255.25;;;15.38;100.00
53889;BME280;41337;51.400;-2.342;2023-10-13T00:22:39;100259.47;;;15.46;100.00
53889;BME280;41337;51.400;-2.342;2023-10-13T00:27:41;100249.22;;;15.63;100.00
53889;BME280;41337;51.400;-2.342;2023-10-13T00:32:49;100259.63;;;15.64;100.00
53889;BME280;41337;51.400;-2.342;2023-10-13T00:38:00;100252.09;;;15.61;100.00
53889;BME280;41337;51.400;-2.342;2023-10-13T00:43:06;100250.47;;;15.53;100.00
53889;BME280;41337;51.400;-2.342;2023-10-13T00:48:42;100262.56;;;15.43;100.00
53889;BME280;41337;51.400;-2.342;2023-10-13T00:54:02;100256.25;;;15.37;100.00
53889;BME280;41337;51.400;-2.342;2023-10-13T00:59:10;100254.88;;;15.28;100.00
53889;BME280;41337;51.400;-2.342;2023-10-13T01:04:14;100244.88;;;15.30;100.00
53889;BME280;41337;51.400;-2.342;2023-10-13T01:09:16;100208.81;;;15.23;100.00
53889;BME280;41337;51.400;-2.342;2023-10-13T01:14:26;100195.00;;;15.14;100.00
53889;BME280;41337;51.400;-2.342;2023-10-13T01:19:30;100194.78;;;15.16;100.00
53889;BME280;41337;51.400;-2.342;2023-10-13T01:24:39;100172.97;;;15.14;100.00
53889;BME280;41337;51.400;-2.342;2023-10-13T01:29:41;100156.47;;;15.12;100.00
53889;BME280;41337;51.400;-2.342;2023-10-13T01:34:49;100146.91;;;15.11;100.00
53889;BME280;41337;51.400;-2.342;2023-10-13T01:39:55;100122.81;;;15.12;100.00
53889;BME280;41337;51.400;-2.342;2023-10-13T01:44:56;100102.88;;;15.09;100.00
53889;BME280;41337;51.400;-2.342;2023-10-13T01:50:07;100063.72;;;15.12;100.00
53889;BME280;41337;51.400;-2.342;2023-10-13T01:55:16;100044.31;;;15.18;100.00
53889;BME280;41337;51.400;-2.342;2023-10-13T02:00:17;100031.63;;;15.20;100.00
53889;BME280;41337;51.400;-2.342;2023-10-13T02:05:23;100013.88;;;15.27;100.00
53889;BME280;41337;51.400;-2.342;2023-10-13T02:10:39;99982.34;;;15.37;100.00
53889;BME280;41337;51.400;-2.342;2023-10-13T02:15:46;99956.97;;;15.47;100.00
53889;BME280;41337;51.400;-2.342;2023-10-13T02:20:48;99958.34;;;15.57;100.00
53889;BME280;41337;51.400;-2.342;2023-10-13T02:25:56;99932.69;;;15.69;100.00
53889;BME280;41337;51.400;-2.342;2023-10-13T02:31:16;99910.72;;;15.80;100.00
53889;BME280;41337;51.400;-2.342;2023-10-13T02:36:20;99883.81;;;15.94;100.00
53889;BME280;41337;51.400;-2.342;2023-10-13T02:41:37;99871.41;;;16.07;100.00
53889;BME280;41337;51.400;-2.342;2023-10-13T02:46:43;99845.56;;;16.14;100.00
53889;BME280;41337;51.400;-2.342;2023-10-13T02:51:44;99829.56;;;16.20;100.00
53889;BME280;41337;51.400;-2.342;2023-10-13T02:56:46;99817.09;;;16.21;100.00
53889;BME280;41337;51.400;-2.342;2023-10-13T03:01:57;99804.59;;;16.21;100.00
53889;BME280;41337;51.400;-2.342;2023-10-13T03:06:58;99792.06;;;16.28;100.00
53889;BME280;41337;51.400;-2.342;2023-10-13T03:12:00;99792.41;;;16.32;100.00
53889;BME280;41337;51.400;-2.342;2023-10-13T03:17:02;99781.09;;;16.36;100.00
53889;BME280;41337;51.400;-2.342;2023-10-13T03:22:09;99766.31;;;16.40;100.00
53889;BME280;41337;51.400;-2.342;2023-10-13T03:27:13;99772.09;;;16.49;100.00
53889;BME280;41337;51.400;-2.342;2023-10-13T03:32:17;99777.19;;;16.51;100.00
53889;BME280;41337;51.400;-2.342;2023-10-13T03:37:18;99776.06;;;16.58;100.00
53889;BME280;41337;51.400;-2.342;2023-10-13T03:42:27;99766.94;;;16.66;100.00
53889;BME280;41337;51.400;-2.342;2023-10-13T03:47:28;99762.75;;;16.81;100.00
53889;BME280;41337;51.400;-2.342;2023-10-13T03:52:32;99756.75;;;16.86;100.00
53889;BME280;41337;51.400;-2.342;2023-10-13T03:57:36;99745.41;;;16.90;100.00
53889;BME280;41337;51.400;-2.342;2023-10-13T04:02:41;99748.66;;;16.93;100.00
53889;BME280;41337;51.400;-2.342;2023-10-13T04:07:48;99720.09;;;17.00;100.00
53889;BME280;41337;51.400;-2.342;2023-10-13T04:13:08;99716.97;;;17.03;100.00
53889;BME280;41337;51.400;-2.342;2023-10-13T04:18:29;99707.72;;;17.05;100.00
53889;BME280;41337;51.400;-2.342;2023-10-13T04:23:56;99716.84;;;17.09;100.00
53889;BME280;41337;51.400;-2.342;2023-10-13T04:29:10;99688.97;;;17.12;100.00
53889;BME280;41337;51.400;-2.342;2023-10-13T04:34:28;99682.13;;;17.16;100.00
53889;BME280;41337;51.400;-2.342;2023-10-13T04:39:39;99681.09;;;17.17;100.00
53889;BME280;41337;51.400;-2.342;2023-10-13T04:44:44;99675.28;;;17.20;100.00
53889;BME280;41337;51.400;-2.342;2023-10-13T04:50:04;99664.16;;;17.23;100.00
53889;BME280;41337;51.400;-2.342;2023-10-13T04:55:25;99673.31;;;17.27;100.00
53889;BME280;41337;51.400;-2.342;2023-10-13T05:01:02;99660.66;;;17.34;100.00
53889;BME280;41337;51.400;-2.342;2023-10-13T05:06:21;99655.25;;;17.29;100.00
53889;BME280;41337;51.400;-2.342;2023-10-13T05:11:45;99669.47;;;17.34;100.00
53889;BME280;41337;51.400;-2.342;2023-10-13T05:17:04;99662.03;;;17.36;100.00
53889;BME280;41337;51.400;-2.342;2023-10-13T05:22:30;99640.63;;;17.43;100.00
53889;BME280;41337;51.400;-2.342;2023-10-13T05:27:51;99658.44;;;17.43;100.00
53889;BME280;41337;51.400;-2.342;2023-10-13T05:33:18;99648.91;;;17.47;100.00
53889;BME280;41337;51.400;-2.342;2023-10-13T05:38:39;99629.50;;;17.46;100.00
53889;BME280;41337;51.400;-2.342;2023-10-13T05:43:58;99625.94;;;17.57;100.00
53889;BME280;41337;51.400;-2.342;2023-10-13T05:49:18;99623.84;;;17.43;100.00
53889;BME280;41337;51.400;-2.342;2023-10-13T05:54:19;99622.22;;;17.42;100.00
53889;BME280;41337;51.400;-2.342;2023-10-13T05:59:38;99619.44;;;17.48;100.00
53889;BME280;41337;51.400;-2.342;2023-10-13T06:05:13;99619.50;;;17.53;100.00
53889;BME280;41337;51.400;-2.342;2023-10-13T06:10:34;99611.50;;;17.53;100.00
53889;BME280;41337;51.400;-2.342;2023-10-13T06:15:55;99621.31;;;17.64;100.00
53889;BME280;41337;51.400;-2.342;2023-10-13T06:21:15;99607.22;;;17.64;100.00
53889;BME280;41337;51.400;-2.342;2023-10-13T06:26:54;99618.88;;;17.79;100.00
53889;BME280;41337;51.400;-2.342;2023-10-13T06:32:15;99621.41;;;17.86;100.00
53889;BME280;41337;51.400;-2.342;2023-10-13T06:37:17;99619.38;;;17.93;100.00
53889;BME280;41337;51.400;-2.342;2023-10-13T06:42:28;99612.19;;;17.94;100.00
53889;BME280;41337;51.400;-2.342;2023-10-13T06:47:29;99619.44;;;17.98;100.00
53889;BME280;41337;51.400;-2.342;2023-10-13T06:52:29;99623.69;;;17.99;100.00
53889;BME280;41337;51.400;-2.342;2023-10-13T06:57:32;99631.53;;;18.06;100.00
53889;BME280;41337;51.400;-2.342;2023-10-13T07:02:35;99629.03;;;18.16;100.00
53889;BME280;41337;51.400;-2.342;2023-10-13T07:07:38;99636.06;;;18.05;100.00
53889;BME280;41337;51.400;-2.342;2023-10-13T07:12:39;99638.41;;;18.02;100.00
53889;BME280;41337;51.400;-2.342;2023-10-13T07:17:50;99634.69;;;18.03;100.00
53889;BME280;41337;51.400;-2.342;2023-10-13T07:22:55;99635.00;;;18.06;100.00
53889;BME280;41337;51.400;-2.342;2023-10-13T07:28:07;99648.06;;;18.08;100.00
53889;BME280;41337;51.400;-2.342;2023-10-13T07:33:11;99641.94;;;18.07;100.00
53889;BME280;41337;51.400;-2.342;2023-10-13T07:38:15;99647.09;;;18.14;100.00
53889;BME280;41337;51.400;-2.342;2023-10-13T07:43:17;99643.38;;;18.15;100.00
53889;BME280;41337;51.400;-2.342;2023-10-13T07:48:22;99645.88;;;18.21;100.00
53889;BME280;41337;51.400;-2.342;2023-10-13T07:53:25;99648.53;;;18.21;100.00
53889;BME280;41337;51.400;-2.342;2023-10-13T07:58:29;99658.59;;;18.36;100.00
53889;BME280;41337;51.400;-2.342;2023-10-13T08:03:34;99653.75;;;18.33;100.00
53889;BME280;41337;51.400;-2.342;2023-10-13T08:08:45;99652.34;;;18.47;100.00
53889;BME280;41337;51.400;-2.342;2023-10-13T08:13:55;99666.72;;;18.46;100.00
53889;BME280;41337;51.400;-2.342;2023-10-13T08:19:13;99653.94;;;18.65;100.00
53889;BME280;41337;51.400;-2.342;2023-10-13T08:24:16;99662.56;;;18.72;100.00
53889;BME280;41337;51.400;-2.342;2023-10-13T08:29:26;99669.75;;;18.71;100.00
53889;BME280;41337;51.400;-2.342;2023-10-13T08:34:30;99667.03;;;18.66;100.00
53889;BME280;41337;51.400;-2.342;2023-10-13T08:39:39;99667.66;;;18.74;100.00
53889;BME280;41337;51.400;-2.342;2023-10-13T08:44:58;99658.78;;;18.90;100.00
53889;BME280;41337;51.400;-2.342;2023-10-13T08:50:05;99651.59;;;18.68;100.00
53889;BME280;41337;51.400;-2.342;2023-10-13T08:55:32;99671.00;;;18.86;100.00
53889;BME280;41337;51.400;-2.342;2023-10-13T09:00:58;99648.41;;;18.71;100.00
53889;BME280;41337;51.400;-2.342;2023-10-13T09:06:34;99665.22;;;18.94;100.00
53889;BME280;41337;51.400;-2.342;2023-10-13T09:11:37;99661.50;;;18.95;100.00
53889;BME280;41337;51.400;-2.342;2023-10-13T09:17:05;99649.94;;;19.11;100.00
53889;BME280;41337;51.400;-2.342;2023-10-13T09:22:20;99646.16;;;19.07;100.00
53889;BME280;41337;51.400;-2.342;2023-10-13T09:27:29;99646.47;;;19.10;100.00
53889;BME280;41337;51.400;-2.342;2023-10-13T09:32:30;99652.94;;;19.41;100.00
53889;BME280;41337;51.400;-2.342;2023-10-13T09:37:32;99652.41;;;19.71;100.00
53889;BME280;41337;51.400;-2.342;2023-10-13T09:42:33;99660.84;;;19.90;100.00
53889;BME280;41337;51.400;-2.342;2023-10-13T09:47:35;99657.66;;;19.93;100.00
53889;BME280;41337;51.400;-2.342;2023-10-13T09:52:43;99652.56;;;20.28;100.00
53889;BME280;41337;51.400;-2.342;2023-10-13T09:57:52;99657.78;;;20.45;100.00
53889;BME280;41337;51.400;-2.342;2023-10-13T10:02:59;99679.28;;;20.75;99.00
53889;BME280;41337;51.400;-2.342;2023-10-13T10:08:24;99653.44;;;20.96;89.87
53889;BME280;41337;51.400;-2.342;2023-10-13T10:14:28;99659.16;;;21.20;100.00
53889;BME280;41337;51.400;-2.342;2023-10-13T10:19:08;99666.69;;;21.38;86.47
53889;BME280;41337;51.400;-2.342;2023-10-13T10:24:15;99662.00;;;20.98;87.51
53889;BME280;41337;51.400;-2.342;2023-10-13T10:29:30;99663.34;;;21.06;84.43
53889;BME280;41337;51.400;-2.342;2023-10-13T10:34:32;99653.19;;;21.08;85.16
53889;BME280;41337;51.400;-2.342;2023-10-13T10:39:37;99649.03;;;21.47;85.95
53889;BME280;41337;51.400;-2.342;2023-10-13T10:44:45;99654.13;;;21.69;82.17
53889;BME280;41337;51.400;-2.342;2023-10-13T10:49:48;99667.91;;;21.10;84.62
53889;BME280;41337;51.400;-2.342;2023-10-13T10:55:01;99666.41;;;20.67;86.56
53889;BME280;41337;51.400;-2.342;2023-10-13T11:00:04;99660.91;;;20.32;86.53
53889;BME280;41337;51.400;-2.342;2023-10-13T11:05:15;99648.88;;;19.97;90.42
53889;BME280;41337;51.400;-2.342;2023-10-13T11:10:20;99649.94;;;19.59;93.22
53889;BME280;41337;51.400;-2.342;2023-10-13T11:15:28;99644.56;;;19.33;95.31
53889;BME280;41337;51.400;-2.342;2023-10-13T11:20:41;99660.16;;;19.19;94.95
53889;BME280;41337;51.400;-2.342;2023-10-13T11:25:45;99670.28;;;19.17;95.18
53889;BME280;41337;51.400;-2.342;2023-10-13T11:30:47;99656.97;;;19.17;95.33
53889;BME280;41337;51.400;-2.342;2023-10-13T11:35:51;99670.84;;;19.19;93.51
53889;BME280;41337;51.400;-2.342;2023-10-13T11:40:59;99667.50;;;19.07;94.85
53889;BME280;41337;51.400;-2.342;2023-10-13T11:46:09;99680.91;;;19.12;95.60
53889;BME280;41337;51.400;-2.342;2023-10-13T11:51:11;99671.47;;;19.26;95.26
53889;BME280;41337;51.400;-2.342;2023-10-13T11:56:24;99655.28;;;19.38;92.31
53889;BME280;41337;51.400;-2.342;2023-10-13T12:01:25;99640.59;;;19.62;91.79
53889;BME280;41337;51.400;-2.342;2023-10-13T12:06:46;99643.22;;;19.57;89.41
53889;BME280;41337;51.400;-2.342;2023-10-13T12:12:03;99633.78;;;19.76;87.01
53889;BME280;41337;51.400;-2.342;2023-10-13T12:17:05;99628.41;;;20.13;87.63
53889;BME280;41337;51.400;-2.342;2023-10-13T12:22:11;99624.78;;;20.29;84.49
53889;BME280;41337;51.400;-2.342;2023-10-13T12:27:17;99622.50;;;20.06;88.95
53889;BME280;41337;51.400;-2.342;2023-10-13T12:32:21;99640.72;;;19.45;93.25
53889;BME280;41337;51.400;-2.342;2023-10-13T12:37:31;99617.00;;;19.22;93.14
53889;BME280;41337;51.400;-2.342;2023-10-13T12:42:38;99621.41;;;19.11;95.44
53889;BME280;41337;51.400;-2.342;2023-10-13T12:47:58;99617.00;;;18.74;100.00
53889;BME280;41337;51.400;-2.342;2023-10-13T12:53:17;99613.78;;;18.71;94.79
53889;BME280;41337;51.400;-2.342;2023-10-13T12:58:18;99608.16;;;18.51;96.07
53889;BME280;41337;51.400;-2.342;2023-10-13T13:03:27;99622.06;;;18.32;97.98
53889;BME280;41337;51.400;-2.342;2023-10-13T13:08:29;99618.22;;;18.44;100.00
53889;BME280;41337;51.400;-2.342;2023-10-13T13:13:35;99608.09;;;18.46;100.00
53889;BME280;41337;51.400;-2.342;2023-10-13T13:18:39;99622.41;;;18.18;100.00
53889;BME280;41337;51.400;-2.342;2023-10-13T13:23:50;99613.00;;;17.94;100.00
53889;BME280;41337;51.400;-2.342;2023-10-13T13:28:51;99625.66;;;17.70;100.00
53889;BME280;41337;51.400;-2.342;2023-10-13T13:33:52;99612.75;;;17.62;100.00
53889;BME280;41337;51.400;-2.342;2023-10-13T13:38:53;99594.84;;;17.58;100.00
53889;BME280;41337;51.400;-2.342;2023-10-13T13:43:58;99579.97;;;17.73;100.00
53889;BME280;41337;51.400;-2.342;2023-10-13T13:49:13;99578.47;;;17.49;100.00
53889;BME280;41337;51.400;-2.342;2023-10-13T13:54:29;99586.75;;;17.53;100.00
53889;BME280;41337;51.400;-2.342;2023-10-13T13:59:33;99579.59;;;17.53;100.00
53889;BME280;41337;51.400;-2.342;2023-10-13T14:04:34;99577.63;;;17.60;100.00
53889;BME280;41337;51.400;-2.342;2023-10-13T14:09:35;99579.84;;;17.35;100.00
53889;BME280;41337;51.400;-2.342;2023-10-13T14:14:42;99570.38;;;17.11;100.00
53889;BME280;41337;51.400;-2.342;2023-10-13T14:19:49;99569.47;;;16.88;100.00
53889;BME280;41337;51.400;-2.342;2023-10-13T14:24:52;99572.16;;;17.05;100.00
53889;BME280;41337;51.400;-2.342;2023-10-13T14:29:56;99565.09;;;16.82;100.00
53889;BME280;41337;51.400;-2.342;2023-10-13T14:34:57;99558.97;;;16.82;100.00
53889;BME280;41337;51.400;-2.342;2023-10-13T14:40:00;99570.31;;;16.77;100.00
53889;BME280;41337;51.400;-2.342;2023-10-13T14:45:01;99559.94;;;16.76;100.00
53889;BME280;41337;51.400;-2.342;2023-10-13T14:50:13;99562.00;;;16.74;100.00
53889;BME280;41337;51.400;-2.342;2023-10-13T14:55:20;99558.78;;;16.72;100.00
53889;BME280;41337;51.400;-2.342;2023-10-13T15:00:22;99557.28;;;16.64;100.00
53889;BME280;41337;51.400;-2.342;2023-10-13T15:05:25;99550.72;;;16.67;100.00
53889;BME280;41337;51.400;-2.342;2023-10-13T15:10:30;99540.09;;;16.67;100.00
53889;BME280;41337;51.400;-2.342;2023-10-13T15:15:31;99559.13;;;16.75;100.00
53889;BME280;41337;51.400;-2.342;2023-10-13T15:20:39;99555.34;;;16.60;100.00
53889;BME280;41337;51.400;-2.342;2023-10-13T15:25:40;99562.28;;;16.49;100.00
53889;BME280;41337;51.400;-2.342;2023-10-13T15:30:50;99572.75;;;16.56;100.00
53889;BME280;41337;51.400;-2.342;2023-10-13T15:36:10;99567.56;;;16.21;100.00
53889;BME280;41337;51.400;-2.342;2023-10-13T15:41:20;99573.56;;;15.93;100.00
53889;BME280;41337;51.400;-2.342;2023-10-13T15:46:22;99567.13;;;15.77;100.00
53889;BME280;41337;51.400;-2.342;2023-10-13T15:51:23;99585.22;;;15.57;100.00
53889;BME280;41337;51.400;-2.342;2023-10-13T15:56:24;99609.84;;;15.46;100.00
53889;BME280;41337;51.400;-2.342;2023-10-13T16:01:25;99618.75;;;15.10;100.00
53889;BME280;41337;51.400;-2.342;2023-10-13T16:06:26;99639.59;;;14.88;100.00
53889;BME280;41337;51.400;-2.342;2023-10-13T16:11:27;99654.53;;;14.64;100.00
53889;BME280;41337;51.400;-2.342;2023-10-13T16:16:27;99670.22;;;14.23;100.00
53889;BME280;41337;51.400;-2.342;2023-10-13T16:21:28;99676.09;;;13.82;100.00
53889;BME280;41337;51.400;-2.342;2023-10-13T16:26:30;99683.91;;;13.70;100.00
53889;BME280;41337;51.400;-2.342;2023-10-13T16:31:31;99695.91;;;13.66;100.00
53889;BME280;41337;51.400;-2.342;2023-10-13T16:36:32;99729.19;;;13.49;100.00
53889;BME280;41337;51.400;-2.342;2023-10-13T16:41:33;99748.84;;;13.22;100.00
53889;BME280;41337;51.400;-2.342;2023-10-13T16:46:33;99755.78;;;13.03;100.00
53889;BME280;41337;51.400;-2.342;2023-10-13T16:51:41;99776.75;;;12.85;100.00
53889;BME280;41337;51.400;-2.342;2023-10-13T16:56:43;99799.53;;;12.73;100.00
53889;BME280;41337;51.400;-2.342;2023-10-13T17:01:53;99816.97;;;12.61;100.00
53889;BME280;41337;51.400;-2.342;2023-10-13T17:06:56;99820.88;;;12.52;100.00
53889;BME280;41337;51.400;-2.342;2023-10-13T17:12:00;99840.94;;;12.53;100.00
53889;BME280;41337;51.400;-2.342;2023-10-13T17:17:09;99856.94;;;12.18;100.00
53889;BME280;41337;51.400;-2.342;2023-10-13T17:22:18;99879.47;;;12.14;100.00
53889;BME280;41337;51.400;-2.342;2023-10-13T17:27:20;99890.81;;;12.08;100.00
53889;BME280;41337;51.400;-2.342;2023-10-13T17:32:23;99911.91;;;12.08;100.00
53889;BME280;41337;51.400;-2.342;2023-10-13T17:37:24;99917.19;;;12.08;100.00
53889;BME280;41337;51.400;-2.342;2023-10-13T17:42:29;99935.06;;;12.19;100.00
53889;BME280;41337;51.400;-2.342;2023-10-13T17:47:50;99951.72;;;12.13;100.00
53889;BME280;41337;51.400;-2.342;2023-10-13T17:52:52;99971.34;;;12.11;100.00
53889;BME280;41337;51.400;-2.342;2023-10-13T17:57:54;99989.41;;;12.14;100.00
53889;BME280;41337;51.400;-2.342;2023-10-13T18:02:56;100006.06;;;12.14;100.00
53889;BME280;41337;51.400;-2.342;2023-10-13T18:07:57;100015.34;;;12.04;100.00
53889;BME280;41337;51.400;-2.342;2023-10-13T18:12:59;100028.72;;;12.02;100.00
53889;BME280;41337;51.400;-2.342;2023-10-13T18:18:01;100051.69;;;12.08;100.00
53889;BME280;41337;51.400;-2.342;2023-10-13T18:23:02;100081.31;;;12.10;100.00
53889;BME280;41337;51.400;-2.342;2023-10-13T18:28:04;100096.97;;;12.18;100.00
53889;BME280;41337;51.400;-2.342;2023-10-13T18:33:06;100123.81;;;12.22;100.00
53889;BME280;41337;51.400;-2.342;2023-10-13T18:38:07;100119.88;;;12.11;100.00
53889;BME280;41337;51.400;-2.342;2023-10-13T18:43:10;100136.47;;;12.05;100.00
53889;BME280;41337;51.400;-2.342;2023-10-13T18:48:11;100147.78;;;11.99;100.00
53889;BME280;41337;51.400;-2.342;2023-10-13T18:53:17;100167.72;;;11.80;100.00
53889;BME280;41337;51.400;-2.342;2023-10-13T18:58:20;100187.25;;;11.86;100.00
53889;BME280;41337;51.400;-2.342;2023-10-13T19:03:23;100209.47;;;11.77;100.00
53889;BME280;41337;51.400;-2.342;2023-10-13T19:08:27;100218.19;;;11.63;100.00
53889;BME280;41337;51.400;-2.342;2023-10-13T19:13:29;100241.47;;;11.38;100.00
53889;BME280;41337;51.400;-2.342;2023-10-13T19:18:31;100244.97;;;11.09;100.00
53889;BME280;41337;51.400;-2.342;2023-10-13T19:23:35;100254.63;;;10.87;100.00
53889;BME280;41337;51.400;-2.342;2023-10-13T19:28:37;100256.34;;;10.66;100.00
53889;BME280;41337;51.400;-2.342;2023-10-13T19:33:40;100270.84;;;10.47;100.00
53889;BME280;41337;51.400;-2.342;2023-10-13T19:39:01;100284.25;;;10.37;100.00
53889;BME280;41337;51.400;-2.342;2023-10-13T19:44:36;100292.84;;;10.31;100.00
53889;BME280;41337;51.400;-2.342;2023-10-13T19:49:42;100306.47;;;10.12;100.00
53889;BME280;41337;51.400;-2.342;2023-10-13T19:55:12;100326.06;;;10.01;100.00
53889;BME280;41337;51.400;-2.342;2023-10-13T20:00:18;100349.06;;;9.77;100.00
53889;BME280;41337;51.400;-2.342;2023-10-13T20:05:22;100359.75;;;9.75;100.00
53889;BME280;41337;51.400;-2.342;2023-10-13T20:10:23;100380.38;;;9.55;100.00
53889;BME280;41337;51.400;-2.342;2023-10-13T20:15:29;100396.31;;;9.54;100.00
53889;BME280;41337;51.400;-2.342;2023-10-13T20:20:30;100402.59;;;9.45;100.00
53889;BME280;41337;51.400;-2.342;2023-10-13T20:25:30;100421.47;;;9.40;100.00
53889;BME280;41337;51.400;-2.342;2023-10-13T20:36:57;100445.47;;;9.21;100.00
53889;BME280;41337;51.400;-2.342;2023-10-13T20:41:59;100445.81;;;9.10;100.00
53889;BME280;41337;51.400;-2.342;2023-10-13T20:47:05;100452.72;;;9.03;100.00
53889;BME280;41337;51.400;-2.342;2023-10-13T20:52:07;100474.22;;;8.82;100.00
53889;BME280;41337;51.400;-2.342;2023-10-13T20:57:08;100476.03;;;8.74;100.00
53889;BME280;41337;51.400;-2.342;2023-10-13T21:02:13;100499.31;;;8.77;100.00
53889;BME280;41337;51.400;-2.342;2023-10-13T21:07:16;100511.59;;;8.68;100.00
53889;BME280;41337;51.400;-2.342;2023-10-13T21:12:19;100522.59;;;8.80;100.00
53889;BME280;41337;51.400;-2.342;2023-10-13T21:17:20;100521.44;;;8.74;100.00
53889;BME280;41337;51.400;-2.342;2023-10-13T21:22:21;100540.31;;;8.78;100.00
53889;BME280;41337;51.400;-2.342;2023-10-13T21:27:23;100540.78;;;8.65;100.00
53889;BME280;41337;51.400;-2.342;2023-10-13T21:32:26;100560.09;;;8.64;100.00
53889;BME280;41337;51.400;-2.342;2023-10-13T21:37:29;100574.19;;;8.63;100.00
53889;BME280;41337;51.400;-2.342;2023-10-13T21:42:30;100581.09;;;8.72;100.00
53889;BME280;41337;51.400;-2.342;2023-10-13T21:47:31;100586.22;;;8.74;100.00
53889;BME280;41337;51.400;-2.342;2023-10-13T21:52:32;100596.03;;;8.80;100.00
53889;BME280;41337;51.400;-2.342;2023-10-13T21:57:34;100610.78;;;8.73;100.00
53889;BME280;41337;51.400;-2.342;2023-10-13T22:02:36;100614.38;;;8.71;100.00
53889;BME280;41337;51.400;-2.342;2023-10-13T22:07:37;100630.47;;;8.68;100.00
53889;BME280;41337;51.400;-2.342;2023-10-13T22:12:37;100636.53;;;8.69;100.00
53889;BME280;41337;51.400;-2.342;2023-10-13T22:17:39;100646.19;;;8.68;100.00
53889;BME280;41337;51.400;-2.342;2023-10-13T22:22:43;100638.81;;;8.64;100.00
53889;BME280;41337;51.400;-2.342;2023-10-13T22:27:45;100652.88;;;8.63;100.00
53889;BME280;41337;51.400;-2.342;2023-10-13T22:32:48;100658.00;;;8.64;100.00
53889;BME280;41337;51.400;-2.342;2023-10-13T22:37:58;100663.53;;;8.61;100.00
53889;BME280;41337;51.400;-2.342;2023-10-13T22:43:00;100670.47;;;8.70;100.00
53889;BME280;41337;51.400;-2.342;2023-10-13T22:48:02;100689.47;;;8.64;100.00
53889;BME280;41337;51.400;-2.342;2023-10-13T22:53:04;100693.56;;;8.67;100.00
53889;BME280;41337;51.400;-2.342;2023-10-13T22:58:07;100699.63;;;8.67;100.00
53889;BME280;41337;51.400;-2.342;2023-10-13T23:03:11;100704.41;;;8.72;100.00
53889;BME280;41337;51.400;-2.342;2023-10-13T23:08:23;100715.59;;;8.74;100.00
53889;BME280;41337;51.400;-2.342;2023-10-13T23:13:48;100729.34;;;8.76;100.00
53889;BME280;41337;51.400;-2.342;2023-10-13T23:18:56;100745.25;;;8.75;100.00
53889;BME280;41337;51.400;-2.342;2023-10-13T23:24:04;100743.91;;;8.70;100.00
53889;BME280;41337;51.400;-2.342;2023-10-13T23:29:09;100750.66;;;8.73;100.00
53889;BME280;41337;51.400;-2.342;2023-10-13T23:34:12;100760.97;;;8.75;100.00
53889;BME280;41337;51.400;-2.342;2023-10-13T23:39:14;100770.50;;;8.76;100.00
53889;BME280;41337;51.400;-2.342;2023-10-13T23:44:34;100780.34;;;8.74;100.00
53889;BME280;41337;51.400;-2.342;2023-10-13T23:49:37;100791.97;;;8.71;100.00
53889;BME280;41337;51.400;-2.342;2023-10-13T23:54:39;100797.03;;;8.64;100.00
53889;BME280;41337;51.400;-2.342;2023-10-13T23:59:40;100804.84;;;8.56;100.00
